createdAt,value
2023-10-09T00:01:06.428Z,2.50
2023-10-09T00:18:30.876Z,2.80
2023-10-09T00:27:15.321Z,2.60
2023-10-09T00:35:45.088Z,3.20
2023-10-09T00:52:41.599Z,2.50
2023-10-09T01:01:06.159Z,2.70
2023-10-09T01:09:29.562Z,3.70
2023-10-09T01:17:52.649Z,2.80
2023-10-09T01:26:15.749Z,4.00
2023-10-09T01:34:51.302Z,3.30
2023-10-09T01:43:20.152Z,3.50
2023-10-09T01:51:43.199Z,3.10
2023-10-09T02:00:08.511Z,2.70
2023-10-09T02:08:38.249Z,2.70
2023-10-09T02:17:04.110Z,3.70
2023-10-09T02:25:35.487Z,3.00
2023-10-09T02:33:58.497Z,2.50
2023-10-09T02:42:24.873Z,3.00
2023-10-09T02:50:48.517Z,3.30
2023-10-09T02:59:11.628Z,2.60
2023-10-09T03:07:35.521Z,3.20
2023-10-09T03:15:58.577Z,3.30
2023-10-09T03:24:23.879Z,2.80
2023-10-09T03:32:52.055Z,2.40
2023-10-09T03:41:17.462Z,2.80
2023-10-09T03:49:40.870Z,2.80
2023-10-09T03:58:04.043Z,2.50
2023-10-09T04:06:34.912Z,2.50
2023-10-09T04:15:04.867Z,2.50
2023-10-09T04:23:36.782Z,3.00
2023-10-09T04:32:02.070Z,2.80
2023-10-09T04:41:03.566Z,3.50
2023-10-09T04:49:29.117Z,3.50
2023-10-09T04:58:03.174Z,3.40
2023-10-09T05:06:55.831Z,4.30
2023-10-09T05:15:19.401Z,3.90
2023-10-09T05:24:11.479Z,3.90
2023-10-09T05:32:44.502Z,4.20
2023-10-09T05:41:27.429Z,4.00
2023-10-09T05:49:58.757Z,4.90
2023-10-09T05:58:40.225Z,5.60
2023-10-09T06:07:13.644Z,5.60
2023-10-09T06:15:49.034Z,5.70
2023-10-09T06:24:19.259Z,4.80
2023-10-09T06:32:59.486Z,5.40
2023-10-09T06:41:36.292Z,6.30
2023-10-09T06:50:34.710Z,5.30
2023-10-09T06:59:06.431Z,3.80
2023-10-09T07:07:36.634Z,3.80
2023-10-09T07:16:19.750Z,4.10
2023-10-09T07:24:51.024Z,4.20
2023-10-09T07:33:14.677Z,4.70
2023-10-09T07:41:40.651Z,4.00
2023-10-09T07:50:05.147Z,5.40
2023-10-09T07:58:30.053Z,68.10
2023-10-09T08:07:59.990Z,6.10
2023-10-09T08:15:52.616Z,6.90
2023-10-09T08:24:34.711Z,3.50
2023-10-09T08:41:31.455Z,6.00
2023-10-09T08:49:54.734Z,5.90
2023-10-09T08:58:32.345Z,5.10
2023-10-09T09:06:55.341Z,3.50
2023-10-09T09:15:22.563Z,4.70
2023-10-09T09:23:58.504Z,2.60
2023-10-09T09:32:39.790Z,2.80
2023-10-09T09:41:08.750Z,2.90
2023-10-09T09:49:32.972Z,2.60
2023-10-09T09:57:58.544Z,1.80
2023-10-09T10:06:22.890Z,1.90
2023-10-09T10:15:19.958Z,2.30
2023-10-09T10:23:48.557Z,2.20
2023-10-09T10:32:12.220Z,2.10
2023-10-09T10:41:01.242Z,2.80
2023-10-09T10:49:26.543Z,3.10
2023-10-09T10:57:57.267Z,3.30
2023-10-09T11:06:38.845Z,2.90
2023-10-09T11:15:09.090Z,2.90
2023-10-09T11:23:52.951Z,3.60
2023-10-09T11:32:24.772Z,3.10
2023-10-09T11:40:54.694Z,3.60
2023-10-09T11:59:39.102Z,3.20
2023-10-09T12:08:03.958Z,3.30
2023-10-09T12:16:30.051Z,3.10
2023-10-09T12:24:54.265Z,3.00
2023-10-09T12:33:19.505Z,3.90
2023-10-09T12:41:42.759Z,3.60
2023-10-09T12:50:15.024Z,3.60
2023-10-09T12:58:41.857Z,3.30
2023-10-09T13:07:08.720Z,3.60
2023-10-09T13:15:43.844Z,4.60
2023-10-09T13:24:14.423Z,4.90
2023-10-09T13:32:38.066Z,3.80
2023-10-09T13:41:02.529Z,3.60
2023-10-09T13:49:31.316Z,4.30
2023-10-09T13:57:58.746Z,3.30
2023-10-09T14:06:31.449Z,4.30
2023-10-09T14:14:57.220Z,3.80
2023-10-09T14:23:21.832Z,3.80
2023-10-09T14:31:50.724Z,3.40
2023-10-09T14:40:14.659Z,4.10
2023-10-09T14:48:39.187Z,7.70
2023-10-09T14:57:02.137Z,12.50
2023-10-09T15:05:25.140Z,10.50
2023-10-09T15:13:48.329Z,11.60
2023-10-09T15:22:12.715Z,6.40
2023-10-09T15:30:35.789Z,8.10
2023-10-09T15:39:00.527Z,6.30
2023-10-09T15:47:23.662Z,5.90
2023-10-09T15:55:47.532Z,4.40
2023-10-09T16:04:14.304Z,16.20
2023-10-09T16:12:41.417Z,22.50
2023-10-09T16:21:10.308Z,5.50
2023-10-09T16:29:33.945Z,4.70
2023-10-09T16:37:59.499Z,23.60
2023-10-09T16:46:23.579Z,24.10
2023-10-09T16:54:46.607Z,9.00
2023-10-09T17:03:10.563Z,6.60
2023-10-09T17:11:38.121Z,6.70
2023-10-09T17:20:11.249Z,13.40
2023-10-09T17:28:34.301Z,9.90
2023-10-09T17:36:59.477Z,10.10
2023-10-09T17:45:24.422Z,11.70
2023-10-09T17:53:48.017Z,14.40
2023-10-09T18:02:17.728Z,18.30
2023-10-09T18:10:44.946Z,18.80
2023-10-09T18:19:13.647Z,15.90
2023-10-09T18:27:37.504Z,9.70
2023-10-09T18:36:10.839Z,12.40
2023-10-09T18:44:35.387Z,10.80
2023-10-09T18:53:03.616Z,9.80
2023-10-09T19:01:31.360Z,7.00
2023-10-09T19:09:56.442Z,10.20
2023-10-09T19:18:24.935Z,13.20
2023-10-09T19:26:50.729Z,12.00
2023-10-09T19:35:14.530Z,9.80
2023-10-09T19:43:40.762Z,14.80
2023-10-09T19:52:06.428Z,17.30
2023-10-09T20:00:32.456Z,15.20
2023-10-09T20:08:55.725Z,12.60
2023-10-09T20:17:18.759Z,20.30
2023-10-09T20:25:41.680Z,34.80
2023-10-09T20:34:10.283Z,22.10
2023-10-09T20:42:33.234Z,28.00
2023-10-09T20:50:56.328Z,29.10
2023-10-09T20:59:20.006Z,33.40
2023-10-09T21:07:47.397Z,63.10
2023-10-09T21:16:13.596Z,107.20
2023-10-09T21:24:37.479Z,85.20
2023-10-09T21:33:00.785Z,95.80
2023-10-09T21:41:24.079Z,120.10
2023-10-09T21:49:47.075Z,121.50
2023-10-09T21:58:11.906Z,131.30
2023-10-09T22:06:34.984Z,126.90
2023-10-09T22:14:58.434Z,110.80
2023-10-09T22:23:32.397Z,92.30
2023-10-09T22:31:56.056Z,86.60
2023-10-09T22:40:27.748Z,81.80
2023-10-09T22:49:01.029Z,75.20
2023-10-09T22:57:24.019Z,76.00
2023-10-09T23:05:47.643Z,81.30
2023-10-09T23:14:16.850Z,77.90
2023-10-09T23:22:49.752Z,81.80
2023-10-09T23:31:23.506Z,89.90
2023-10-09T23:39:56.235Z,87.00
2023-10-09T23:48:25.129Z,83.70
2023-10-09T23:57:00.307Z,78.60
